• Join FlightAware (Why Join?)
  • Login
  • US Flag 
06:33PM EST


 

Airport Tracker/Info


-or-


 

Live Flight TrackerFlight Track Log ✈ EZY2567 ✈ 15-Apr-2013 ✈ LIMC / MXP - GMMN / CMN

Flight Track Log - Related Links

Times and Time Zones

All times are in EDT time to prevent confusion due to time zone crossing. See the EZY2567 flight status page for this flight to view local times or setup timezone preferences in your user account.

Time Position Orientation Groundspeed Altitude Reporting Facility
EDT Latitude Longitude Course Direction KTS MPH feet Rate Location/Type
12:31AM 45.1402 7.8678 231° Southwest  Level Estimated
12:32AM 45.0785 7.7614 231° Southwest  Level Estimated
12:33AM 45.0166 7.6551 231° Southwest  Level Estimated
12:34AM 44.9547 7.5491 230° Southwest  Level Estimated
12:35AM 44.8927 7.4433 230° Southwest  Level Estimated
12:36AM 44.8305 7.3377 230° Southwest  Level Estimated
12:36AM 45.6600 8.7280 230° Southwest 170 196 1,700  Level FlightAware
12:37AM 44.7683 7.2323 230° Southwest  Level Estimated
12:37AM 45.6860 8.7280 360° North 173 199 3,000  Level FlightAware
12:37AM 45.7100 8.7260 357° North 171 197 4,200 2,220 Climbing FlightAware
12:37AM 45.7160 8.7200 325° Northwest 175 201 4,500 1,920 Climbing FlightAware
12:38AM 45.7220 8.7030 297° West 176 203 5,000 1,440 Climbing FlightAware
12:38AM 45.7080 8.6750 234° Southwest 199 229 5,600 1,020 Climbing FlightAware
12:38AM 45.6950 8.6660 206° Southwest 221 254 5,800 1,020 Climbing FlightAware
12:39AM 45.6680 8.6450 209° Southwest 271 312 6,300 1,260 Climbing FlightAware
12:39AM 45.6330 8.6180 208° Southwest 308 354 7,000 1,920 Climbing FlightAware
12:40AM 45.6020 8.5940 208° Southwest 322 371 8,100 3,120 Climbing FlightAware
12:40AM 45.5630 8.5640 208° Southwest 319 367 9,900 3,000 Climbing FlightAware
12:41AM 45.5090 8.5230 208° Southwest 335 386 11,600 2,640 Climbing FlightAware
12:42AM 45.4480 8.4790 207° Southwest 341 392 13,700 2,400 Climbing FlightAware
12:42AM 45.3860 8.4380 205° Southwest 364 419 15,000 1,980 Climbing FlightAware
12:43AM 45.3240 8.3970 205° Southwest 378 435 16,400 2,400 Climbing FlightAware
12:44AM 45.2530 8.3500 205° Southwest 378 435 18,400 2,460 Climbing FlightAware
12:44AM 45.1910 8.3080 206° Southwest 382 440 19,900 2,280 Climbing FlightAware
12:45AM 45.1150 8.2580 205° Southwest 383 441 21,700 1,920 Climbing FlightAware
12:46AM 45.0520 8.2160 205° Southwest 396 456 22,700 1,680 Climbing FlightAware
12:46AM 44.9830 8.1700 205° Southwest 397 457 24,000 1,800 Climbing FlightAware
12:47AM 44.9100 8.1220 205° Southwest 403 464 25,300 1,680 Climbing FlightAware
12:48AM 44.8410 8.0770 205° Southwest 407 468 26,400 1,500 Climbing FlightAware
12:49AM 44.7620 8.0250 205° Southwest 412 474 27,500 1,320 Climbing FlightAware
12:49AM 44.6970 7.9830 205° Southwest 416 479 28,300 1,320 Climbing FlightAware
12:50AM 44.6270 7.9360 206° Southwest 418 481 29,300 1,260 Climbing FlightAware
12:51AM 44.5660 7.8470 226° Southwest 426 490 30,100 900 Climbing FlightAware
12:51AM 44.5200 7.7570 234° Southwest 434 499 30,600 1,020 Climbing FlightAware
12:52AM 44.4740 7.6670 234° Southwest 432 497 31,500 1,380 Climbing FlightAware
12:53AM 44.4190 7.5610 234° Southwest 428 493 32,600 1,440 Climbing FlightAware
12:53AM 44.3750 7.4740 235° Southwest 423 487 33,600 1,440 Climbing FlightAware
12:54AM 44.3250 7.3760 235° Southwest 414 476 34,700 1,260 Climbing FlightAware
12:55AM 44.2810 7.2930 233° Southwest 413 475 35,400 540 Climbing FlightAware
12:57AM 44.1777 7.1112 232° Southwest  Level Estimated
12:58AM 44.1167 7.0046 232° Southwest  Level Estimated
12:58AM 44.0480 6.8450 232° Southwest 415 478 37,000  Level FlightAware
01:01AM 43.9131 6.6120 231° Southwest  Level Estimated
01:02AM 43.8516 6.5065 231° Southwest  Level Estimated
01:03AM 43.7901 6.4011 231° Southwest  Level Estimated
01:03AM 43.7620 6.3060 231° Southwest 414 476 37,000  Level FlightAware
01:03AM 43.7120 6.2140 233° Southwest 417 480 37,000  Level FlightAware
01:04AM 43.6610 6.1180 234° Southwest 419 482 37,000  Level FlightAware
01:04AM 43.6300 6.0610 233° Southwest 420 483 37,000  Level FlightAware
01:05AM 43.5670 5.9450 233° Southwest 414 476 37,000  Level FlightAware
01:06AM 43.5150 5.8500 233° Southwest 414 476 37,000  Level FlightAware
01:07AM 43.4700 5.7670 233° Southwest 415 478 37,000  Level FlightAware
01:07AM 43.4170 5.6690 233° Southwest 415 478 37,000  Level FlightAware
01:08AM 43.3690 5.5820 233° Southwest 415 478 37,000  Level FlightAware
01:09AM 43.3250 5.5020 233° Southwest 415 478 37,000  Level FlightAware
01:10AM 43.2630 5.3890 233° Southwest 414 476 37,000  Level FlightAware
01:10AM 43.2040 5.2900 231° Southwest 410 472 37,000  Level FlightAware
01:11AM 43.1460 5.2010 228° Southwest 413 475 37,000  Level FlightAware
01:14AM 43.0019 4.9674 230° Southwest  Level Estimated
01:15AM 42.9387 4.8654 230° Southwest  Level Estimated
01:15AM 42.8800 4.7980 230° Southwest 405 466 37,000  Level FlightAware
01:15AM 42.8310 4.7240 228° Southwest 404 465 37,000  Level FlightAware
01:16AM 42.7820 4.6500 228° Southwest 407 468 37,000  Level FlightAware
01:19AM 42.6264 4.4020 230° Southwest  Level Estimated
01:19AM 42.5820 4.3530 230° Southwest 411 473 37,000  Level FlightAware
01:19AM 42.5250 4.2680 228° Southwest 409 471 37,000  Level FlightAware
01:20AM 42.4720 4.1900 227° Southwest 410 472 37,000  Level FlightAware
01:21AM 42.4220 4.1150 228° Southwest 412 474 37,000  Level FlightAware
01:21AM 42.3610 4.0260 227° Southwest 417 480 37,000  Level FlightAware
01:22AM 42.3090 3.9490 228° Southwest 417 480 37,000  Level FlightAware
01:23AM 42.2470 3.8590 227° Southwest 416 479 37,000  Level FlightAware
01:24AM 42.1970 3.7870 227° Southwest 417 480 37,000  Level FlightAware
01:24AM 42.1420 3.7070 227° Southwest 416 479 37,000  Level FlightAware
01:25AM 42.0890 3.6150 232° Southwest 419 482 37,000  Level FlightAware
01:26AM 42.0530 3.5260 241° Southwest 421 484 37,000  Level FlightAware
01:26AM 42.0210 3.4290 246° West 422 486 37,000  Level FlightAware
01:27AM 41.9860 3.3230 246° West 420 483 37,000  Level FlightAware
01:28AM 41.9520 3.2270 245° Southwest 420 483 37,000  Level FlightAware
01:28AM 41.9040 3.1320 236° Southwest 419 482 37,000  Level FlightAware
01:29AM 41.8550 3.0480 232° Southwest 418 481 37,000  Level FlightAware
01:30AM 41.8080 2.9660 232° Southwest 418 481 37,000  Level FlightAware
01:31AM 41.7570 2.8760 233° Southwest 419 482 37,000  Level FlightAware
01:31AM 41.7070 2.7900 232° Southwest 419 482 37,000  Level FlightAware
01:32AM 41.6550 2.7000 232° Southwest 419 482 37,000  Level FlightAware
01:33AM 41.6070 2.6190 232° Southwest 419 482 37,000  Level FlightAware
01:33AM 41.5590 2.5360 232° Southwest 419 482 37,000  Level FlightAware
01:34AM 41.5050 2.4440 232° Southwest 420 483 37,000  Level FlightAware
01:35AM 41.4570 2.3610 232° Southwest 423 487 37,000  Level FlightAware
01:35AM 41.4050 2.2730 232° Southwest 427 491 37,000  Level FlightAware
01:36AM 41.3540 2.1870 232° Southwest 430 495 37,000  Level FlightAware
01:37AM 41.3060 2.1070 231° Southwest 433 498 37,000 60 Level FlightAware
01:38AM 41.2440 2.0150 228° Southwest 434 499 37,100 60 Climbing FlightAware
01:38AM 41.1910 1.9360 228° Southwest 433 498 37,100 -120 Level FlightAware
01:39AM 41.1320 1.8490 228° Southwest 430 495 37,000 -120 Descending FlightAware
01:40AM 41.0800 1.7720 228° Southwest 429 494 37,000  Level FlightAware
01:40AM 41.0250 1.6910 228° Southwest 429 494 37,000  Level FlightAware
01:41AM 40.9670 1.6070 228° Southwest 430 495 37,000  Level FlightAware
01:42AM 40.9120 1.5270 228° Southwest 431 496 37,000  Level FlightAware
01:42AM 40.8500 1.4360 228° Southwest 431 496 37,000  Level FlightAware
01:43AM 40.7970 1.3580 228° Southwest 431 496 37,000  Level FlightAware
01:44AM 40.7430 1.2810 227° Southwest 430 495 37,000  Level FlightAware
01:45AM 40.6850 1.1980 227° Southwest 428 493 37,000  Level FlightAware
01:45AM 40.6310 1.1200 228° Southwest 427 491 37,000  Level FlightAware
01:46AM 40.5710 1.0330 228° Southwest 427 491 37,000  Level FlightAware
01:47AM 40.5170 0.9550 228° Southwest 427 491 37,000  Level FlightAware
01:47AM 40.4630 0.8800 227° Southwest 428 493 37,000  Level FlightAware
01:48AM 40.4030 0.7940 228° Southwest 428 493 37,000  Level FlightAware
01:49AM 40.3510 0.7190 228° Southwest 428 493 37,000  Level FlightAware
01:49AM 40.2880 0.6310 227° Southwest 428 493 37,000  Level FlightAware
01:50AM 40.2370 0.5580 228° Southwest 428 493 37,000  Level FlightAware
01:51AM 40.1760 0.4720 227° Southwest 426 490 37,000  Level FlightAware
01:52AM 40.1230 0.3980 227° Southwest 425 489 37,000  Level FlightAware
01:52AM 40.0690 0.3230 227° Southwest 423 487 37,000  Level FlightAware
01:53AM 40.0080 0.2380 227° Southwest 424 488 37,000  Level FlightAware
01:54AM 39.9540 0.1620 227° Southwest 423 487 37,000  Level FlightAware
01:54AM 39.9010 0.0890 227° Southwest 425 489 37,000  Level FlightAware
01:55AM 39.8400 0.0050 227° Southwest 430 495 37,000  Level FlightAware
01:56AM 39.7850 -0.0710 227° Southwest 435 501 37,000 60 Level FlightAware
01:56AM 39.7230 -0.1580 227° Southwest 437 503 37,100  Climbing FlightAware
01:57AM 39.6680 -0.2330 226° Southwest 436 502 37,000  Descending FlightAware
01:58AM 39.6120 -0.3100 227° Southwest 436 502 37,100  Climbing FlightAware
01:59AM 39.5510 -0.3930 226° Southwest 436 502 37,000 -120 Descending FlightAware
01:59AM 39.4950 -0.4700 227° Southwest 436 502 37,000  Level FlightAware
02:00AM 39.4450 -0.5530 232° Southwest 435 501 37,000  Level FlightAware
02:01AM 39.3890 -0.6490 233° Southwest 437 503 37,000  Level FlightAware
02:01AM 39.3420 -0.7280 232° Southwest 438 504 37,000  Level FlightAware
02:02AM 39.2880 -0.8200 233° Southwest 435 501 37,000  Level FlightAware
02:03AM 39.2380 -0.9040 232° Southwest 436 502 37,000  Level FlightAware
02:03AM 39.1820 -0.9980 232° Southwest 435 501 37,000  Level FlightAware
02:04AM 39.1320 -1.0820 233° Southwest 437 503 37,000  Level FlightAware
02:05AM 39.0830 -1.1640 232° Southwest 437 503 37,000  Level FlightAware
02:06AM 39.0290 -1.2550 233° Southwest 437 503 37,000  Level FlightAware
02:06AM 38.9850 -1.3280 232° Southwest 437 503 37,000  Level FlightAware
02:07AM 38.9310 -1.4180 232° Southwest 440 506 37,000  Level FlightAware
02:08AM 38.8870 -1.4910 232° Southwest 442 509 37,000  Level FlightAware
02:08AM 38.8230 -1.5980 233° Southwest 444 511 37,000  Level FlightAware
02:09AM 38.7690 -1.6870 232° Southwest 446 513 37,000  Level FlightAware
02:10AM 38.7190 -1.7680 232° Southwest 446 513 37,000  Level FlightAware
02:10AM 38.6630 -1.8610 232° Southwest 446 513 37,000  Level FlightAware
02:11AM 38.6100 -1.9470 232° Southwest 447 514 37,000  Level FlightAware
02:12AM 38.5600 -2.0290 232° Southwest 447 514 37,000  Level FlightAware
02:13AM 38.5020 -2.1230 232° Southwest 446 513 37,000  Level FlightAware
02:13AM 38.4550 -2.2000 232° Southwest 444 511 37,000  Level FlightAware
02:14AM 38.4000 -2.2900 232° Southwest 441 507 37,000  Level FlightAware
02:15AM 38.3470 -2.3720 231° Southwest 437 503 37,000  Level FlightAware
02:15AM 38.2890 -2.4490 226° Southwest 442 509 37,000  Level FlightAware
02:16AM 38.2240 -2.5360 226° Southwest 442 509 37,000  Level FlightAware
02:17AM 38.1650 -2.6150 226° Southwest 442 509 37,000  Level FlightAware
02:17AM 38.1080 -2.6910 226° Southwest 442 509 37,000  Level FlightAware
02:18AM 38.0490 -2.7700 227° Southwest 442 509 37,000  Level FlightAware
02:19AM 37.9930 -2.8440 226° Southwest 442 509 37,000  Level FlightAware
02:20AM 37.9280 -2.9300 226° Southwest 442 509 37,000  Level FlightAware
02:20AM 37.8710 -3.0060 226° Southwest 443 510 37,000  Level FlightAware
02:21AM 37.8140 -3.0810 226° Southwest 444 511 37,000  Level FlightAware
02:22AM 37.7620 -3.1490 226° Southwest 444 511 37,000  Level FlightAware
02:22AM 37.6920 -3.2400 226° Southwest 444 511 37,000  Level FlightAware
02:23AM 37.6300 -3.3220 226° Southwest 444 511 37,000  Level FlightAware
02:24AM 37.5760 -3.3920 226° Southwest 444 511 37,000  Level FlightAware
02:24AM 37.5410 -3.4380 226° Southwest 444 511 37,000  Level FlightAware
02:25AM 37.4720 -3.5280 226° Southwest 442 509 37,000  Level FlightAware
02:26AM 37.4090 -3.6090 226° Southwest 441 507 37,000  Level FlightAware
02:26AM 37.3520 -3.6830 226° Southwest 441 507 37,000  Level FlightAware
02:27AM 37.2940 -3.7570 225° Southwest 441 507 37,000  Level FlightAware
02:28AM 37.2300 -3.8390 226° Southwest 442 509 37,000  Level FlightAware
02:28AM 37.1790 -3.9050 226° Southwest 444 511 37,000  Level FlightAware
02:29AM 37.1140 -3.9880 226° Southwest 444 511 37,000  Level FlightAware
02:31AM 36.9690 -4.1730 226° Southwest 443 510 37,000  Level FlightAware
02:33AM 36.7420 -4.4270 222° Southwest 457 526 37,000  Level FlightAware
02:34AM 36.6190 -4.5240 212° Southwest 456 525 37,000  Level FlightAware
02:36AM 36.4830 -4.6320 213° Southwest 458 527 37,000  Level FlightAware
02:37AM 36.3590 -4.7300 212° Southwest 458 527 37,000  Level FlightAware
02:38AM 36.2230 -4.8370 212° Southwest 459 528 37,000  Level FlightAware
02:39AM 36.1000 -4.9330 212° Southwest 460 529 37,000  Level FlightAware
02:41AM 35.9550 -5.0480 213° Southwest 447 514 37,000  Level FlightAware
02:41AM 35.8830 -5.1050 213° Southwest 455 524 37,000  Level FlightAware
02:42AM 35.8000 -5.1700 212° Southwest 457 526 37,000  Level FlightAware
02:43AM 35.7300 -5.2230 212° Southwest 457 526 37,000  Level FlightAware
02:43AM 35.6480 -5.2890 213° Southwest 457 526 37,000  Level FlightAware
02:44AM 35.5760 -5.3450 212° Southwest 457 526 37,000  Level FlightAware
02:45AM 35.5050 -5.4010 213° Southwest 456 525 37,000  Level FlightAware
02:45AM 35.4250 -5.4640 213° Southwest 457 526 37,000  Level FlightAware
02:46AM 35.3730 -5.5040 212° Southwest 457 526 37,000  Level FlightAware
02:47AM 35.3000 -5.5610 213° Southwest 458 527 37,000  Level FlightAware
02:47AM 35.2300 -5.6150 212° Southwest 457 526 37,000  Level FlightAware
02:48AM 35.1490 -5.6780 212° Southwest 458 527 37,000  Level FlightAware
02:49AM 35.0760 -5.7340 212° Southwest 458 527 37,000  Level FlightAware
02:49AM 34.9960 -5.7960 212° Southwest 458 527 37,000  Level FlightAware
02:50AM 34.9250 -5.8510 212° Southwest 458 527 37,000  Level FlightAware
02:51AM 34.8530 -5.9070 213° Southwest 460 529 37,000  Level FlightAware
02:52AM 34.7720 -5.9690 212° Southwest 460 529 37,000  Level FlightAware
02:52AM 34.7010 -6.0230 212° Southwest 461 531 37,000  Level FlightAware
02:53AM 34.6180 -6.0860 212° Southwest 461 531 37,000  Level FlightAware
02:54AM 34.5470 -6.1410 213° Southwest 455 524 37,000  Level FlightAware
02:54AM 34.4730 -6.1970 212° Southwest 461 531 37,000  Level FlightAware
02:55AM 34.3950 -6.2560 212° Southwest 454 522 37,000 -1,560 Level FlightAware
02:56AM 34.2920 -6.3340 212° Southwest 461 531 34,400 -1,800 Descending FlightAware
02:57AM 34.2300 -6.3810 212° Southwest 462 532 34,200 -2,580 Descending FlightAware
02:58AM 34.1240 -6.4610 212° Southwest 474 545 30,400 -2,400 Descending FlightAware
02:58AM 34.0610 -6.5080 212° Southwest 474 545 30,400  Level FlightAware
02:59AM 33.9980 -6.5560 212° Southwest 474 545 30,400  Level FlightAware
03:00AM 33.9280 -6.6080 212° Southwest 474 545 30,400  Level FlightAware
03:00AM 33.8650 -6.6560 212° Southwest 474 545 30,400  Level FlightAware
03:01AM 33.7860 -6.7150 212° Southwest 474 545 30,400  Level FlightAware
03:02AM 33.7230 -6.7630 212° Southwest 474 545 30,400  Level FlightAware
03:02AM 33.6590 -6.8100 211° Southwest 474 545 30,400  Level FlightAware
03:03AM 33.5960 -6.8580 212° Southwest 474 545 30,400  Level FlightAware
03:04AM 33.5330 -6.9050 212° Southwest 474 545 30,400  Level FlightAware
03:05AM 33.4540 -6.9640 212° Southwest 474 545 30,400  Level FlightAware
03:05AM 33.3910 -7.0120 212° Southwest 474 545 30,400  Level FlightAware
03:06AM 33.3270 -7.0590 212° Southwest 474 545 30,400  Level FlightAware
03:07AM 33.2640 -7.1060 212° Southwest 474 545 30,400  Level FlightAware
03:09AM 33.3130 -7.3319 285° West  Level Estimated
03:10AM 33.3389 -7.4520 284° West  Level Estimated
03:11AM 33.3646 -7.5721 284° West  Level Estimated
03:12AM 33.3680 -7.5880 284° West  Level Estimated
03:13AM 33.3680 -7.5880 257° West  Level Estimated
03:14AM 33.3680 -7.5880 257° West  Level Estimated
03:15AM 33.3680 -7.5880 257° West  Level Estimated
03:16AM 33.3680 -7.5880 257° West  Level Estimated
03:17AM 33.3680 -7.5880 257° West  Level Estimated
03:18AM 33.3680 -7.5880 257° West  Level Estimated
03:19AM 33.3680 -7.5880 257° West  Level Estimated
03:20AM 33.3680 -7.5880 257° West  Level Estimated
03:21AM 33.3680 -7.5880 257° West  Level Estimated
03:22AM 33.3680 -7.5880 257° West  Level Estimated
03:23AM 33.3680 -7.5880 257° West  Level Estimated
03:24AM 33.3680 -7.5880 257° West  Level Estimated
03:25AM 33.3680 -7.5880 257° West  Level Estimated
03:26AM 33.3680 -7.5880 257° West  Level Estimated
03:27AM 33.3680 -7.5880 257° West  Level Estimated
03:28AM 33.3680 -7.5880 257° West  Level Estimated